sensor_id;sensor_type;location;lat;lon;timestamp;P1;durP1;ratioP1;P2;durP2;ratioP2
10633;SDS011;5365;51.640;8.106;2022-11-15T00:01:02;11.70;;;8.57;;
10633;SDS011;5365;51.640;8.106;2022-11-15T00:03:50;13.77;;;9.60;;
10633;SDS011;5365;51.640;8.106;2022-11-15T00:06:30;12.87;;;9.80;;
10633;SDS011;5365;51.640;8.106;2022-11-15T00:09:11;12.83;;;10.00;;
10633;SDS011;5365;51.640;8.106;2022-11-15T00:11:51;13.70;;;10.97;;
10633;SDS011;5365;51.640;8.106;2022-11-15T00:14:32;14.23;;;10.23;;
10633;SDS011;5365;51.640;8.106;2022-11-15T00:17:12;14.60;;;10.87;;
10633;SDS011;5365;51.640;8.106;2022-11-15T00:19:52;14.33;;;10.47;;
10633;SDS011;5365;51.640;8.106;2022-11-15T00:22:33;13.63;;;9.53;;
10633;SDS011;5365;51.640;8.106;2022-11-15T00:25:14;11.57;;;9.57;;
10633;SDS011;5365;51.640;8.106;2022-11-15T00:27:57;9.93;;;8.13;;
10633;SDS011;5365;51.640;8.106;2022-11-15T00:30:38;10.20;;;8.43;;
10633;SDS011;5365;51.640;8.106;2022-11-15T00:33:18;10.20;;;8.70;;
10633;SDS011;5365;51.640;8.106;2022-11-15T00:35:59;14.25;;;9.20;;
10633;SDS011;5365;51.640;8.106;2022-11-15T00:38:41;11.23;;;8.87;;
10633;SDS011;5365;51.640;8.106;2022-11-15T00:41:21;10.93;;;8.20;;
10633;SDS011;5365;51.640;8.106;2022-11-15T00:44:01;11.47;;;8.90;;
10633;SDS011;5365;51.640;8.106;2022-11-15T00:46:41;13.43;;;9.47;;
10633;SDS011;5365;51.640;8.106;2022-11-15T00:49:22;11.57;;;8.83;;
10633;SDS011;5365;51.640;8.106;2022-11-15T00:52:02;12.93;;;9.70;;
10633;SDS011;5365;51.640;8.106;2022-11-15T00:54:42;11.03;;;8.33;;
10633;SDS011;5365;51.640;8.106;2022-11-15T00:57:22;11.37;;;8.67;;
10633;SDS011;5365;51.640;8.106;2022-11-15T01:00:03;10.53;;;8.83;;
10633;SDS011;5365;51.640;8.106;2022-11-15T01:02:43;11.07;;;9.33;;
10633;SDS011;5365;51.640;8.106;2022-11-15T01:05:24;11.87;;;9.03;;
10633;SDS011;5365;51.640;8.106;2022-11-15T01:08:04;10.90;;;8.43;;
10633;SDS011;5365;51.640;8.106;2022-11-15T01:10:44;13.10;;;9.40;;
10633;SDS011;5365;51.640;8.106;2022-11-15T01:13:24;11.67;;;8.70;;
10633;SDS011;5365;51.640;8.106;2022-11-15T01:16:08;11.43;;;9.33;;
10633;SDS011;5365;51.640;8.106;2022-11-15T01:18:50;13.53;;;9.10;;
10633;SDS011;5365;51.640;8.106;2022-11-15T01:21:30;11.97;;;8.97;;
10633;SDS011;5365;51.640;8.106;2022-11-15T01:24:11;12.53;;;9.03;;
10633;SDS011;5365;51.640;8.106;2022-11-15T01:26:52;11.53;;;8.90;;
10633;SDS011;5365;51.640;8.106;2022-11-15T01:29:33;11.53;;;9.00;;
10633;SDS011;5365;51.640;8.106;2022-11-15T01:32:13;11.83;;;9.70;;
10633;SDS011;5365;51.640;8.106;2022-11-15T01:34:54;14.20;;;10.27;;
10633;SDS011;5365;51.640;8.106;2022-11-15T01:37:34;14.67;;;10.77;;
10633;SDS011;5365;51.640;8.106;2022-11-15T01:40:14;18.33;;;10.77;;
10633;SDS011;5365;51.640;8.106;2022-11-15T01:42:54;19.70;;;11.53;;
10633;SDS011;5365;51.640;8.106;2022-11-15T01:45:35;21.00;;;11.80;;
10633;SDS011;5365;51.640;8.106;2022-11-15T01:48:15;18.17;;;11.10;;
10633;SDS011;5365;51.640;8.106;2022-11-15T01:50:56;19.33;;;11.13;;
10633;SDS011;5365;51.640;8.106;2022-11-15T01:53:37;18.87;;;10.63;;
10633;SDS011;5365;51.640;8.106;2022-11-15T01:56:20;21.63;;;11.57;;
10633;SDS011;5365;51.640;8.106;2022-11-15T01:59:04;21.00;;;11.20;;
10633;SDS011;5365;51.640;8.106;2022-11-15T02:01:47;22.00;;;11.77;;
10633;SDS011;5365;51.640;8.106;2022-11-15T02:04:28;20.43;;;12.63;;
10633;SDS011;5365;51.640;8.106;2022-11-15T02:07:10;19.73;;;12.53;;
10633;SDS011;5365;51.640;8.106;2022-11-15T02:09:52;22.27;;;13.20;;
10633;SDS011;5365;51.640;8.106;2022-11-15T02:12:33;17.53;;;12.10;;
10633;SDS011;5365;51.640;8.106;2022-11-15T02:15:13;19.60;;;12.23;;
10633;SDS011;5365;51.640;8.106;2022-11-15T02:29:10;16.13;;;10.07;;
10633;SDS011;5365;51.640;8.106;2022-11-15T02:31:54;13.33;;;9.10;;
10633;SDS011;5365;51.640;8.106;2022-11-15T02:34:47;16.20;;;10.10;;
10633;SDS011;5365;51.640;8.106;2022-11-15T02:37:39;13.27;;;9.10;;
10633;SDS011;5365;51.640;8.106;2022-11-15T02:40:34;15.57;;;8.37;;
10633;SDS011;5365;51.640;8.106;2022-11-15T02:43:22;10.17;;;7.83;;
10633;SDS011;5365;51.640;8.106;2022-11-15T02:46:48;9.57;;;7.53;;
10633;SDS011;5365;51.640;8.106;2022-11-15T02:49:52;9.57;;;6.90;;
10633;SDS011;5365;51.640;8.106;2022-11-15T02:52:33;9.27;;;7.37;;
10633;SDS011;5365;51.640;8.106;2022-11-15T03:04:21;10.80;;;7.17;;
10633;SDS011;5365;51.640;8.106;2022-11-15T03:13:00;10.93;;;6.73;;
10633;SDS011;5365;51.640;8.106;2022-11-15T03:16:06;10.80;;;7.57;;
10633;SDS011;5365;51.640;8.106;2022-11-15T03:18:57;8.80;;;7.13;;
10633;SDS011;5365;51.640;8.106;2022-11-15T03:21:41;12.00;;;7.13;;
10633;SDS011;5365;51.640;8.106;2022-11-15T03:24:22;9.63;;;7.20;;
10633;SDS011;5365;51.640;8.106;2022-11-15T03:27:08;10.63;;;7.00;;
10633;SDS011;5365;51.640;8.106;2022-11-15T03:29:55;11.17;;;6.87;;
10633;SDS011;5365;51.640;8.106;2022-11-15T03:32:40;8.50;;;7.33;;
10633;SDS011;5365;51.640;8.106;2022-11-15T03:35:27;9.17;;;6.63;;
10633;SDS011;5365;51.640;8.106;2022-11-15T03:38:26;9.63;;;6.57;;
10633;SDS011;5365;51.640;8.106;2022-11-15T03:41:13;8.23;;;6.60;;
10633;SDS011;5365;51.640;8.106;2022-11-15T03:43:59;8.17;;;5.87;;
10633;SDS011;5365;51.640;8.106;2022-11-15T03:50:12;7.37;;;6.00;;
10633;SDS011;5365;51.640;8.106;2022-11-15T03:52:54;8.70;;;5.83;;
10633;SDS011;5365;51.640;8.106;2022-11-15T03:55:35;6.77;;;5.07;;
10633;SDS011;5365;51.640;8.106;2022-11-15T03:58:15;5.83;;;5.03;;
10633;SDS011;5365;51.640;8.106;2022-11-15T04:00:55;7.53;;;5.30;;
10633;SDS011;5365;51.640;8.106;2022-11-15T04:03:35;8.10;;;4.57;;
10633;SDS011;5365;51.640;8.106;2022-11-15T04:06:16;5.47;;;4.07;;
10633;SDS011;5365;51.640;8.106;2022-11-15T04:08:56;4.50;;;4.07;;
10633;SDS011;5365;51.640;8.106;2022-11-15T04:11:37;5.33;;;4.47;;
10633;SDS011;5365;51.640;8.106;2022-11-15T04:14:17;4.37;;;4.00;;
10633;SDS011;5365;51.640;8.106;2022-11-15T04:16:57;6.20;;;4.07;;
10633;SDS011;5365;51.640;8.106;2022-11-15T04:19:38;4.17;;;3.87;;
10633;SDS011;5365;51.640;8.106;2022-11-15T04:22:36;6.87;;;4.33;;
10633;SDS011;5365;51.640;8.106;2022-11-15T04:25:35;5.20;;;4.10;;
10633;SDS011;5365;51.640;8.106;2022-11-15T04:28:15;4.63;;;4.23;;
10633;SDS011;5365;51.640;8.106;2022-11-15T04:30:56;4.40;;;4.10;;
10633;SDS011;5365;51.640;8.106;2022-11-15T04:33:36;4.03;;;3.70;;
10633;SDS011;5365;51.640;8.106;2022-11-15T04:36:16;4.63;;;4.20;;
10633;SDS011;5365;51.640;8.106;2022-11-15T04:39:15;4.50;;;4.10;;
10633;SDS011;5365;51.640;8.106;2022-11-15T04:41:56;6.90;;;4.70;;
10633;SDS011;5365;51.640;8.106;2022-11-15T04:44:36;4.40;;;4.10;;
10633;SDS011;5365;51.640;8.106;2022-11-15T04:47:16;3.97;;;3.67;;
10633;SDS011;5365;51.640;8.106;2022-11-15T04:49:57;5.00;;;4.40;;
10633;SDS011;5365;51.640;8.106;2022-11-15T04:52:37;5.93;;;4.23;;
10633;SDS011;5365;51.640;8.106;2022-11-15T04:55:18;6.43;;;4.47;;
10633;SDS011;5365;51.640;8.106;2022-11-15T04:58:01;5.97;;;4.50;;
10633;SDS011;5365;51.640;8.106;2022-11-15T05:00:42;5.43;;;4.93;;
10633;SDS011;5365;51.640;8.106;2022-11-15T05:03:22;4.77;;;4.37;;
10633;SDS011;5365;51.640;8.106;2022-11-15T05:06:21;5.90;;;4.47;;
10633;SDS011;5365;51.640;8.106;2022-11-15T05:09:01;5.63;;;4.80;;
10633;SDS011;5365;51.640;8.106;2022-11-15T05:11:42;4.67;;;4.23;;
10633;SDS011;5365;51.640;8.106;2022-11-15T05:14:23;5.10;;;4.60;;
10633;SDS011;5365;51.640;8.106;2022-11-15T05:17:03;5.17;;;4.70;;
10633;SDS011;5365;51.640;8.106;2022-11-15T05:19:44;6.87;;;5.00;;
10633;SDS011;5365;51.640;8.106;2022-11-15T05:22:24;6.07;;;5.47;;
10633;SDS011;5365;51.640;8.106;2022-11-15T05:25:05;5.93;;;5.33;;
10633;SDS011;5365;51.640;8.106;2022-11-15T05:27:46;5.37;;;4.87;;
10633;SDS011;5365;51.640;8.106;2022-11-15T05:30:26;6.27;;;5.30;;
10633;SDS011;5365;51.640;8.106;2022-11-15T05:33:06;6.03;;;5.43;;
10633;SDS011;5365;51.640;8.106;2022-11-15T05:35:48;6.37;;;5.60;;
10633;SDS011;5365;51.640;8.106;2022-11-15T05:38:31;7.07;;;6.07;;
10633;SDS011;5365;51.640;8.106;2022-11-15T05:41:11;5.90;;;5.37;;
10633;SDS011;5365;51.640;8.106;2022-11-15T05:43:52;11.60;;;5.80;;
10633;SDS011;5365;51.640;8.106;2022-11-15T05:46:33;5.83;;;5.27;;
10633;SDS011;5365;51.640;8.106;2022-11-15T05:49:15;5.90;;;5.30;;
10633;SDS011;5365;51.640;8.106;2022-11-15T05:51:57;6.47;;;5.20;;
10633;SDS011;5365;51.640;8.106;2022-11-15T05:54:38;6.13;;;5.47;;
10633;SDS011;5365;51.640;8.106;2022-11-15T05:57:18;6.17;;;5.57;;
10633;SDS011;5365;51.640;8.106;2022-11-15T05:59:59;7.70;;;5.90;;
10633;SDS011;5365;51.640;8.106;2022-11-15T06:02:39;7.93;;;5.70;;
10633;SDS011;5365;51.640;8.106;2022-11-15T06:05:20;5.97;;;5.27;;
10633;SDS011;5365;51.640;8.106;2022-11-15T06:08:00;5.87;;;4.73;;
10633;SDS011;5365;51.640;8.106;2022-11-15T06:10:40;6.30;;;4.60;;
10633;SDS011;5365;51.640;8.106;2022-11-15T06:13:20;6.60;;;4.50;;
10633;SDS011;5365;51.640;8.106;2022-11-15T06:16:01;4.17;;;3.87;;
10633;SDS011;5365;51.640;8.106;2022-11-15T06:18:41;4.43;;;4.03;;
10633;SDS011;5365;51.640;8.106;2022-11-15T06:21:22;5.13;;;3.53;;
10633;SDS011;5365;51.640;8.106;2022-11-15T06:24:02;3.93;;;3.57;;
10633;SDS011;5365;51.640;8.106;2022-11-15T06:26:43;3.70;;;3.40;;
10633;SDS011;5365;51.640;8.106;2022-11-15T06:29:23;4.33;;;3.73;;
10633;SDS011;5365;51.640;8.106;2022-11-15T06:32:03;4.27;;;3.87;;
10633;SDS011;5365;51.640;8.106;2022-11-15T06:34:44;4.47;;;3.67;;
10633;SDS011;5365;51.640;8.106;2022-11-15T06:37:24;5.20;;;3.80;;
10633;SDS011;5365;51.640;8.106;2022-11-15T06:40:05;4.83;;;3.90;;
10633;SDS011;5365;51.640;8.106;2022-11-15T06:42:46;4.00;;;3.70;;
10633;SDS011;5365;51.640;8.106;2022-11-15T06:45:26;4.17;;;3.77;;
10633;SDS011;5365;51.640;8.106;2022-11-15T06:48:07;3.60;;;3.30;;
10633;SDS011;5365;51.640;8.106;2022-11-15T06:50:51;4.53;;;3.87;;
10633;SDS011;5365;51.640;8.106;2022-11-15T06:53:31;4.20;;;3.63;;
10633;SDS011;5365;51.640;8.106;2022-11-15T06:56:12;3.60;;;3.30;;
10633;SDS011;5365;51.640;8.106;2022-11-15T06:58:52;4.87;;;3.40;;
10633;SDS011;5365;51.640;8.106;2022-11-15T07:01:33;4.20;;;3.47;;
10633;SDS011;5365;51.640;8.106;2022-11-15T07:04:13;4.83;;;3.37;;
10633;SDS011;5365;51.640;8.106;2022-11-15T07:06:53;4.43;;;3.60;;
10633;SDS011;5365;51.640;8.106;2022-11-15T07:09:34;3.83;;;3.30;;
10633;SDS011;5365;51.640;8.106;2022-11-15T07:12:14;3.67;;;3.37;;
10633;SDS011;5365;51.640;8.106;2022-11-15T07:14:54;4.30;;;3.10;;
10633;SDS011;5365;51.640;8.106;2022-11-15T07:17:34;3.60;;;3.30;;
10633;SDS011;5365;51.640;8.106;2022-11-15T07:20:15;5.73;;;3.50;;
10633;SDS011;5365;51.640;8.106;2022-11-15T07:22:59;3.90;;;3.50;;
10633;SDS011;5365;51.640;8.106;2022-11-15T07:25:45;4.00;;;3.33;;
10633;SDS011;5365;51.640;8.106;2022-11-15T07:28:25;3.60;;;3.30;;
10633;SDS011;5365;51.640;8.106;2022-11-15T07:31:07;4.27;;;2.90;;
10633;SDS011;5365;51.640;8.106;2022-11-15T07:33:48;3.17;;;2.97;;
10633;SDS011;5365;51.640;8.106;2022-11-15T07:36:28;3.13;;;2.87;;
10633;SDS011;5365;51.640;8.106;2022-11-15T07:39:09;3.87;;;2.90;;
10633;SDS011;5365;51.640;8.106;2022-11-15T07:41:49;3.77;;;2.67;;
10633;SDS011;5365;51.640;8.106;2022-11-15T07:44:50;2.70;;;2.50;;
10633;SDS011;5365;51.640;8.106;2022-11-15T07:47:30;2.60;;;2.37;;
10633;SDS011;5365;51.640;8.106;2022-11-15T07:50:10;2.53;;;2.33;;
10633;SDS011;5365;51.640;8.106;2022-11-15T07:52:53;2.53;;;2.33;;
10633;SDS011;5365;51.640;8.106;2022-11-15T07:55:35;2.60;;;2.40;;
10633;SDS011;5365;51.640;8.106;2022-11-15T07:58:15;2.30;;;2.20;;
10633;SDS011;5365;51.640;8.106;2022-11-15T08:00:56;2.57;;;2.20;;
10633;SDS011;5365;51.640;8.106;2022-11-15T08:03:36;2.50;;;2.20;;
10633;SDS011;5365;51.640;8.106;2022-11-15T08:06:17;2.27;;;2.13;;
10633;SDS011;5365;51.640;8.106;2022-11-15T08:08:57;2.80;;;2.40;;
10633;SDS011;5365;51.640;8.106;2022-11-15T08:11:37;2.20;;;2.10;;
10633;SDS011;5365;51.640;8.106;2022-11-15T08:14:17;2.33;;;2.13;;
10633;SDS011;5365;51.640;8.106;2022-11-15T08:16:58;2.93;;;2.70;;
10633;SDS011;5365;51.640;8.106;2022-11-15T08:19:38;2.40;;;2.17;;
10633;SDS011;5365;51.640;8.106;2022-11-15T08:22:19;3.37;;;2.30;;
10633;SDS011;5365;51.640;8.106;2022-11-15T08:24:59;2.27;;;2.07;;
10633;SDS011;5365;51.640;8.106;2022-11-15T08:27:39;3.17;;;2.70;;
10633;SDS011;5365;51.640;8.106;2022-11-15T08:30:20;2.40;;;2.20;;
10633;SDS011;5365;51.640;8.106;2022-11-15T08:33:00;2.50;;;2.30;;
10633;SDS011;5365;51.640;8.106;2022-11-15T08:35:40;2.40;;;2.20;;
10633;SDS011;5365;51.640;8.106;2022-11-15T08:38:21;2.83;;;2.23;;
10633;SDS011;5365;51.640;8.106;2022-11-15T08:41:02;2.63;;;2.50;;
10633;SDS011;5365;51.640;8.106;2022-11-15T08:43:44;2.57;;;2.27;;
10633;SDS011;5365;51.640;8.106;2022-11-15T08:46:24;2.30;;;2.10;;
10633;SDS011;5365;51.640;8.106;2022-11-15T08:49:05;2.40;;;2.30;;
10633;SDS011;5365;51.640;8.106;2022-11-15T08:51:45;2.97;;;2.40;;
10633;SDS011;5365;51.640;8.106;2022-11-15T08:54:25;2.90;;;2.53;;
10633;SDS011;5365;51.640;8.106;2022-11-15T08:57:06;2.20;;;2.00;;
10633;SDS011;5365;51.640;8.106;2022-11-15T08:59:46;1.80;;;1.70;;
10633;SDS011;5365;51.640;8.106;2022-11-15T09:02:26;1.90;;;1.73;;
10633;SDS011;5365;51.640;8.106;2022-11-15T09:05:07;2.13;;;1.93;;
10633;SDS011;5365;51.640;8.106;2022-11-15T09:07:52;1.93;;;1.83;;
10633;SDS011;5365;51.640;8.106;2022-11-15T09:10:33;2.03;;;1.80;;
10633;SDS011;5365;51.640;8.106;2022-11-15T09:13:13;4.20;;;2.30;;
10633;SDS011;5365;51.640;8.106;2022-11-15T09:15:57;2.45;;;1.98;;
10633;SDS011;5365;51.640;8.106;2022-11-15T09:18:38;1.83;;;1.73;;
10633;SDS011;5365;51.640;8.106;2022-11-15T09:21:18;1.88;;;1.50;;
10633;SDS011;5365;51.640;8.106;2022-11-15T09:23:58;1.63;;;1.52;;
10633;SDS011;5365;51.640;8.106;2022-11-15T09:26:39;1.48;;;1.38;;
10633;SDS011;5365;51.640;8.106;2022-11-15T09:29:20;1.40;;;1.40;;
10633;SDS011;5365;51.640;8.106;2022-11-15T09:32:00;1.30;;;1.30;;
10633;SDS011;5365;51.640;8.106;2022-11-15T09:34:41;1.60;;;1.50;;
10633;SDS011;5365;51.640;8.106;2022-11-15T09:37:21;1.35;;;1.25;;
10633;SDS011;5365;51.640;8.106;2022-11-15T09:40:02;1.50;;;1.40;;
10633;SDS011;5365;51.640;8.106;2022-11-15T09:42:52;1.45;;;1.30;;
10633;SDS011;5365;51.640;8.106;2022-11-15T09:45:45;1.70;;;1.60;;
10633;SDS011;5365;51.640;8.106;2022-11-15T09:48:59;2.10;;;1.20;;
10633;SDS011;5365;51.640;8.106;2022-11-15T09:51:32;1.40;;;1.30;;
10633;SDS011;5365;51.640;8.106;2022-11-15T09:56:41;1.60;;;1.60;;
10633;SDS011;5365;51.640;8.106;2022-11-15T10:04:26;1.48;;;1.40;;
10633;SDS011;5365;51.640;8.106;2022-11-15T10:09:45;1.58;;;1.50;;
10633;SDS011;5365;51.640;8.106;2022-11-15T10:12:10;2.38;;;1.80;;
10633;SDS011;5365;51.640;8.106;2022-11-15T10:14:34;1.92;;;1.83;;
10633;SDS011;5365;51.640;8.106;2022-11-15T10:24:44;2.45;;;1.65;;
10633;SDS011;5365;51.640;8.106;2022-11-15T10:27:11;1.65;;;1.55;;
10633;SDS011;5365;51.640;8.106;2022-11-15T10:29:34;3.40;;;1.80;;
10633;SDS011;5365;51.640;8.106;2022-11-15T10:31:56;1.83;;;1.73;;
10633;SDS011;5365;51.640;8.106;2022-11-15T10:34:19;2.03;;;1.92;;
10633;SDS011;5365;51.640;8.106;2022-11-15T10:36:46;1.63;;;1.55;;
10633;SDS011;5365;51.640;8.106;2022-11-15T10:39:13;3.25;;;1.60;;
10633;SDS011;5365;51.640;8.106;2022-11-15T10:41:39;2.70;;;1.50;;
10633;SDS011;5365;51.640;8.106;2022-11-15T10:46:28;1.77;;;1.67;;
10633;SDS011;5365;51.640;8.106;2022-11-15T10:49:13;1.90;;;1.67;;
10633;SDS011;5365;51.640;8.106;2022-11-15T10:51:38;1.35;;;1.35;;
10633;SDS011;5365;51.640;8.106;2022-11-15T10:54:03;1.63;;;1.52;;
10633;SDS011;5365;51.640;8.106;2022-11-15T10:56:31;1.85;;;1.60;;
10633;SDS011;5365;51.640;8.106;2022-11-15T10:58:54;1.67;;;1.55;;
10633;SDS011;5365;51.640;8.106;2022-11-15T11:01:19;2.80;;;1.55;;
10633;SDS011;5365;51.640;8.106;2022-11-15T11:03:44;1.80;;;1.70;;
10633;SDS011;5365;51.640;8.106;2022-11-15T11:06:49;1.50;;;1.40;;
10633;SDS011;5365;51.640;8.106;2022-11-15T11:09:19;1.67;;;1.58;;
10633;SDS011;5365;51.640;8.106;2022-11-15T11:11:44;1.67;;;1.58;;
10633;SDS011;5365;51.640;8.106;2022-11-15T11:14:13;3.70;;;1.80;;
10633;SDS011;5365;51.640;8.106;2022-11-15T11:22:32;1.45;;;1.35;;
10633;SDS011;5365;51.640;8.106;2022-11-15T11:25:03;2.17;;;1.52;;
10633;SDS011;5365;51.640;8.106;2022-11-15T11:30:06;1.90;;;1.80;;
10633;SDS011;5365;51.640;8.106;2022-11-15T11:35:17;1.77;;;1.67;;
10633;SDS011;5365;51.640;8.106;2022-11-15T11:37:52;2.08;;;1.98;;
10633;SDS011;5365;51.640;8.106;2022-11-15T11:40:22;1.85;;;1.75;;
10633;SDS011;5365;51.640;8.106;2022-11-15T11:45:27;2.28;;;1.83;;
10633;SDS011;5365;51.640;8.106;2022-11-15T11:48:12;1.80;;;1.70;;
10633;SDS011;5365;51.640;8.106;2022-11-15T11:50:36;2.45;;;1.77;;
10633;SDS011;5365;51.640;8.106;2022-11-15T11:53:11;1.90;;;1.80;;
10633;SDS011;5365;51.640;8.106;2022-11-15T11:55:36;1.88;;;1.45;;
10633;SDS011;5365;51.640;8.106;2022-11-15T12:00:31;1.60;;;1.50;;
10633;SDS011;5365;51.640;8.106;2022-11-15T12:03:10;1.80;;;1.70;;
10633;SDS011;5365;51.640;8.106;2022-11-15T12:05:50;1.75;;;1.65;;
10633;SDS011;5365;51.640;8.106;2022-11-15T12:11:58;1.70;;;1.60;;
10633;SDS011;5365;51.640;8.106;2022-11-15T12:13:50;1.70;;;1.60;;
10633;SDS011;5365;51.640;8.106;2022-11-15T12:16:22;1.33;;;1.33;;
10633;SDS011;5365;51.640;8.106;2022-11-15T12:18:51;1.77;;;1.67;;
10633;SDS011;5365;51.640;8.106;2022-11-15T12:21:21;1.52;;;1.42;;
10633;SDS011;5365;51.640;8.106;2022-11-15T12:23:50;1.77;;;1.30;;
10633;SDS011;5365;51.640;8.106;2022-11-15T12:26:25;1.38;;;1.20;;
10633;SDS011;5365;51.640;8.106;2022-11-15T12:28:51;2.20;;;1.63;;
10633;SDS011;5365;51.640;8.106;2022-11-15T12:31:36;1.65;;;1.50;;
10633;SDS011;5365;51.640;8.106;2022-11-15T12:34:01;1.63;;;1.35;;
10633;SDS011;5365;51.640;8.106;2022-11-15T12:36:46;1.80;;;1.20;;
10633;SDS011;5365;51.640;8.106;2022-11-15T12:39:09;1.23;;;1.20;;
10633;SDS011;5365;51.640;8.106;2022-11-15T12:41:33;1.65;;;1.55;;
10633;SDS011;5365;51.640;8.106;2022-11-15T12:43:56;1.23;;;1.23;;
10633;SDS011;5365;51.640;8.106;2022-11-15T12:48:52;1.48;;;1.38;;
10633;SDS011;5365;51.640;8.106;2022-11-15T12:51:15;1.40;;;1.30;;
10633;SDS011;5365;51.640;8.106;2022-11-15T12:53:38;3.05;;;1.50;;
10633;SDS011;5365;51.640;8.106;2022-11-15T12:58:41;1.58;;;1.48;;
10633;SDS011;5365;51.640;8.106;2022-11-15T13:01:10;1.73;;;1.33;;
10633;SDS011;5365;51.640;8.106;2022-11-15T13:03:32;1.33;;;1.23;;
10633;SDS011;5365;51.640;8.106;2022-11-15T13:08:37;2.08;;;1.98;;
10633;SDS011;5365;51.640;8.106;2022-11-15T13:11:19;1.30;;;1.20;;
10633;SDS011;5365;51.640;8.106;2022-11-15T13:14:00;1.55;;;1.45;;
10633;SDS011;5365;51.640;8.106;2022-11-15T13:16:22;1.95;;;1.77;;
10633;SDS011;5365;51.640;8.106;2022-11-15T13:18:44;1.52;;;1.20;;
10633;SDS011;5365;51.640;8.106;2022-11-15T13:21:19;1.60;;;1.50;;
10633;SDS011;5365;51.640;8.106;2022-11-15T13:24:02;1.63;;;1.52;;
10633;SDS011;5365;51.640;8.106;2022-11-15T13:26:24;1.50;;;1.40;;
10633;SDS011;5365;51.640;8.106;2022-11-15T13:28:47;1.85;;;1.75;;
10633;SDS011;5365;51.640;8.106;2022-11-15T13:34:03;2.13;;;1.65;;
10633;SDS011;5365;51.640;8.106;2022-11-15T13:36:49;1.83;;;1.73;;
10633;SDS011;5365;51.640;8.106;2022-11-15T13:39:23;1.50;;;1.40;;
10633;SDS011;5365;51.640;8.106;2022-11-15T13:41:48;3.72;;;1.35;;
10633;SDS011;5365;51.640;8.106;2022-11-15T13:44:18;1.58;;;1.40;;
10633;SDS011;5365;51.640;8.106;2022-11-15T13:46:44;2.95;;;1.80;;
10633;SDS011;5365;51.640;8.106;2022-11-15T13:49:09;2.33;;;1.58;;
10633;SDS011;5365;51.640;8.106;2022-11-15T13:56:31;3.47;;;1.80;;
10633;SDS011;5365;51.640;8.106;2022-11-15T13:58:53;2.00;;;1.80;;
10633;SDS011;5365;51.640;8.106;2022-11-15T14:01:19;1.70;;;1.60;;
10633;SDS011;5365;51.640;8.106;2022-11-15T14:03:46;1.70;;;1.60;;
10633;SDS011;5365;51.640;8.106;2022-11-15T14:06:15;2.40;;;2.20;;
10633;SDS011;5365;51.640;8.106;2022-11-15T14:08:38;2.58;;;2.10;;
10633;SDS011;5365;51.640;8.106;2022-11-15T14:11:12;2.95;;;1.73;;
10633;SDS011;5365;51.640;8.106;2022-11-15T14:13:37;1.77;;;1.50;;
10633;SDS011;5365;51.640;8.106;2022-11-15T14:16:15;1.65;;;1.52;;
10633;SDS011;5365;51.640;8.106;2022-11-15T14:21:07;1.50;;;1.40;;
10633;SDS011;5365;51.640;8.106;2022-11-15T14:23:29;1.50;;;1.40;;
10633;SDS011;5365;51.640;8.106;2022-11-15T14:25:55;1.77;;;1.60;;
10633;SDS011;5365;51.640;8.106;2022-11-15T14:30:46;3.00;;;1.80;;
10633;SDS011;5365;51.640;8.106;2022-11-15T14:35:45;1.67;;;1.58;;
10633;SDS011;5365;51.640;8.106;2022-11-15T14:38:07;2.80;;;1.60;;
10633;SDS011;5365;51.640;8.106;2022-11-15T14:40:28;2.30;;;1.67;;
10633;SDS011;5365;51.640;8.106;2022-11-15T14:42:50;3.28;;;1.48;;
10633;SDS011;5365;51.640;8.106;2022-11-15T14:45:16;1.45;;;1.35;;
10633;SDS011;5365;51.640;8.106;2022-11-15T14:47:39;2.55;;;1.40;;
10633;SDS011;5365;51.640;8.106;2022-11-15T14:50:02;1.50;;;1.40;;
10633;SDS011;5365;51.640;8.106;2022-11-15T14:54:51;2.38;;;1.48;;
10633;SDS011;5365;51.640;8.106;2022-11-15T14:57:12;4.55;;;1.83;;
10633;SDS011;5365;51.640;8.106;2022-11-15T14:59:34;1.90;;;1.40;;
10633;SDS011;5365;51.640;8.106;2022-11-15T15:01:56;1.67;;;1.53;;
10633;SDS011;5365;51.640;8.106;2022-11-15T15:04:18;2.80;;;1.53;;
10633;SDS011;5365;51.640;8.106;2022-11-15T15:06:39;2.30;;;1.70;;
10633;SDS011;5365;51.640;8.106;2022-11-15T15:09:01;3.43;;;1.43;;
10633;SDS011;5365;51.640;8.106;2022-11-15T15:11:26;1.73;;;1.57;;
10633;SDS011;5365;51.640;8.106;2022-11-15T15:13:50;1.60;;;1.50;;
10633;SDS011;5365;51.640;8.106;2022-11-15T15:16:13;1.60;;;1.50;;
10633;SDS011;5365;51.640;8.106;2022-11-15T15:18:35;1.47;;;1.40;;
10633;SDS011;5365;51.640;8.106;2022-11-15T15:20:57;3.20;;;1.70;;
10633;SDS011;5365;51.640;8.106;2022-11-15T15:23:28;2.43;;;2.10;;
10633;SDS011;5365;51.640;8.106;2022-11-15T15:25:53;2.53;;;1.77;;
10633;SDS011;5365;51.640;8.106;2022-11-15T15:28:14;2.17;;;1.50;;
10633;SDS011;5365;51.640;8.106;2022-11-15T15:30:36;1.30;;;1.20;;
10633;SDS011;5365;51.640;8.106;2022-11-15T15:32:58;1.93;;;1.60;;
10633;SDS011;5365;51.640;8.106;2022-11-15T15:35:20;1.77;;;1.63;;
10633;SDS011;5365;51.640;8.106;2022-11-15T15:37:43;2.73;;;1.70;;
10633;SDS011;5365;51.640;8.106;2022-11-15T15:40:16;1.60;;;1.40;;
10633;SDS011;5365;51.640;8.106;2022-11-15T15:42:39;1.53;;;1.40;;
10633;SDS011;5365;51.640;8.106;2022-11-15T15:45:01;1.70;;;1.60;;
10633;SDS011;5365;51.640;8.106;2022-11-15T15:47:23;1.60;;;1.50;;
10633;SDS011;5365;51.640;8.106;2022-11-15T15:49:45;2.17;;;1.47;;
10633;SDS011;5365;51.640;8.106;2022-11-15T15:52:07;5.03;;;1.73;;
10633;SDS011;5365;51.640;8.106;2022-11-15T15:54:28;3.33;;;1.57;;
10633;SDS011;5365;51.640;8.106;2022-11-15T15:56:50;1.50;;;1.40;;
10633;SDS011;5365;51.640;8.106;2022-11-15T15:59:15;1.97;;;1.70;;
10633;SDS011;5365;51.640;8.106;2022-11-15T16:01:37;2.57;;;1.83;;
10633;SDS011;5365;51.640;8.106;2022-11-15T16:03:58;1.87;;;1.67;;
10633;SDS011;5365;51.640;8.106;2022-11-15T16:06:34;1.83;;;1.73;;
10633;SDS011;5365;51.640;8.106;2022-11-15T16:08:56;2.20;;;1.97;;
10633;SDS011;5365;51.640;8.106;2022-11-15T16:11:29;2.20;;;2.00;;
10633;SDS011;5365;51.640;8.106;2022-11-15T16:13:50;2.13;;;2.00;;
10633;SDS011;5365;51.640;8.106;2022-11-15T16:16:13;2.53;;;1.70;;
10633;SDS011;5365;51.640;8.106;2022-11-15T16:18:35;1.77;;;1.67;;
10633;SDS011;5365;51.640;8.106;2022-11-15T16:20:56;2.97;;;2.40;;
10633;SDS011;5365;51.640;8.106;2022-11-15T16:23:18;3.13;;;2.10;;
10633;SDS011;5365;51.640;8.106;2022-11-15T16:25:46;1.90;;;1.80;;
10633;SDS011;5365;51.640;8.106;2022-11-15T16:28:22;2.47;;;1.87;;
10633;SDS011;5365;51.640;8.106;2022-11-15T16:30:45;2.20;;;2.03;;
10633;SDS011;5365;51.640;8.106;2022-11-15T16:33:06;2.93;;;1.93;;
10633;SDS011;5365;51.640;8.106;2022-11-15T16:35:28;2.10;;;1.80;;
10633;SDS011;5365;51.640;8.106;2022-11-15T16:37:50;3.10;;;1.90;;
10633;SDS011;5365;51.640;8.106;2022-11-15T16:40:23;3.70;;;2.17;;
10633;SDS011;5365;51.640;8.106;2022-11-15T16:42:47;4.20;;;2.00;;
10633;SDS011;5365;51.640;8.106;2022-11-15T16:45:10;2.77;;;1.90;;
10633;SDS011;5365;51.640;8.106;2022-11-15T16:47:33;2.47;;;2.20;;
10633;SDS011;5365;51.640;8.106;2022-11-15T16:49:55;4.93;;;2.33;;
10633;SDS011;5365;51.640;8.106;2022-11-15T16:52:16;2.67;;;2.13;;
10633;SDS011;5365;51.640;8.106;2022-11-15T16:54:41;3.40;;;2.20;;
10633;SDS011;5365;51.640;8.106;2022-11-15T16:57:03;3.23;;;2.50;;
10633;SDS011;5365;51.640;8.106;2022-11-15T16:59:24;3.77;;;2.30;;
10633;SDS011;5365;51.640;8.106;2022-11-15T17:01:46;2.57;;;2.37;;
10633;SDS011;5365;51.640;8.106;2022-11-15T17:04:13;3.90;;;2.30;;
10633;SDS011;5365;51.640;8.106;2022-11-15T17:06:37;3.00;;;2.67;;
10633;SDS011;5365;51.640;8.106;2022-11-15T17:09:02;3.77;;;2.50;;
10633;SDS011;5365;51.640;8.106;2022-11-15T17:11:24;4.73;;;2.60;;
10633;SDS011;5365;51.640;8.106;2022-11-15T17:13:46;2.83;;;2.53;;
10633;SDS011;5365;51.640;8.106;2022-11-15T17:16:10;2.83;;;2.30;;
10633;SDS011;5365;51.640;8.106;2022-11-15T17:18:34;3.33;;;2.07;;
10633;SDS011;5365;51.640;8.106;2022-11-15T17:20:56;2.60;;;2.40;;
10633;SDS011;5365;51.640;8.106;2022-11-15T17:23:17;2.63;;;2.40;;